Grass Rope, South Dakota
Current Conditions -  °F | °C
As of 10:55 AM on Wednesday 22 Oct 2014 (Local Time) from K9V9 Reporting Station
Light Rain Light Rain  
Wind Chill: 56°   Ceiling: 8500
Heat Index: 56°   Visibility: 10mi
Dew Point: 49°   Wind: 14mph
Humidity: 76%   Direction: 270°W
Pressure: 29.95"   Gusts: NA
Location:  43.8324°N, 99.5368°W
Report Text: K9V9 221555Z AUTO 27012KT 10SM -RA SCT050 SCT070 OVC085 14/10 A2995 RMK AO2 T01360095
Loading
Personal Weather Stations






























Interactive Weather Map
Tropical Storm Tracking
New forecast layout! Learn more

10-Day Weather Forecast

Advertisements
Track Severe Weather on mobile